createdAt,value
2023-04-09T00:00:47.353Z,22.00
2023-04-09T00:03:15.574Z,22.00
2023-04-09T00:05:43.719Z,21.90
2023-04-09T00:08:11.823Z,21.90
2023-04-09T00:10:39.934Z,21.90
2023-04-09T00:13:08.080Z,21.90
2023-04-09T00:15:36.200Z,21.90
2023-04-09T00:18:05.824Z,21.90
2023-04-09T00:20:33.964Z,21.90
2023-04-09T00:23:02.091Z,21.90
2023-04-09T00:25:30.413Z,21.80
2023-04-09T00:27:59.047Z,21.80
2023-04-09T00:30:29.235Z,21.80
2023-04-09T00:32:57.455Z,21.80
2023-04-09T00:35:27.005Z,21.80
2023-04-09T00:37:55.110Z,21.80
2023-04-09T00:40:23.320Z,21.80
2023-04-09T00:42:51.513Z,21.80
2023-04-09T00:45:19.638Z,21.80
2023-04-09T00:47:48.217Z,21.80
2023-04-09T00:50:17.404Z,21.80
2023-04-09T00:52:47.214Z,21.80
2023-04-09T00:55:15.651Z,21.70
2023-04-09T00:57:43.759Z,21.80
2023-04-09T01:00:13.959Z,21.80
2023-04-09T01:02:42.569Z,21.70
2023-04-09T01:05:11.859Z,21.70
2023-04-09T01:07:55.807Z,21.70
2023-04-09T01:10:31.469Z,21.70
2023-04-09T01:13:08.393Z,21.70
2023-04-09T01:15:41.381Z,21.70
2023-04-09T01:18:14.757Z,21.70
2023-04-09T01:20:47.628Z,21.70
2023-04-09T01:23:20.514Z,21.70
2023-04-09T01:26:03.180Z,21.70
2023-04-09T01:28:44.434Z,21.70
2023-04-09T01:31:14.990Z,21.70
2023-04-09T01:33:43.464Z,21.70
2023-04-09T01:36:12.456Z,21.70
2023-04-09T01:38:43.456Z,21.70
2023-04-09T01:41:16.310Z,21.60
2023-04-09T01:43:47.649Z,21.60
2023-04-09T01:46:17.676Z,21.60
2023-04-09T01:48:46.670Z,21.60
2023-04-09T01:51:15.464Z,21.60
2023-04-09T01:53:43.988Z,21.60
2023-04-09T01:56:12.086Z,21.60
2023-04-09T01:58:40.938Z,21.60
2023-04-09T02:01:14.402Z,21.60
2023-04-09T02:03:47.556Z,21.60
2023-04-09T02:06:21.715Z,21.60
2023-04-09T02:08:52.399Z,21.60
2023-04-09T02:11:22.738Z,21.60
2023-04-09T02:13:53.426Z,21.60
2023-04-09T02:16:24.246Z,21.60
2023-04-09T02:18:55.846Z,21.50
2023-04-09T02:21:24.127Z,21.50
2023-04-09T02:23:52.441Z,21.50
2023-04-09T02:26:20.586Z,21.50
2023-04-09T02:28:48.884Z,21.50
2023-04-09T02:31:17.021Z,21.50
2023-04-09T02:33:46.483Z,21.50
2023-04-09T02:36:15.154Z,21.50
2023-04-09T02:38:43.990Z,21.50
2023-04-09T02:41:12.093Z,21.50
2023-04-09T02:43:40.289Z,21.50
2023-04-09T02:46:08.795Z,21.50
2023-04-09T02:48:37.888Z,21.50
2023-04-09T02:51:08.536Z,21.50
2023-04-09T02:53:37.763Z,21.50
2023-04-09T02:56:06.334Z,21.50
2023-04-09T02:58:34.422Z,21.40
2023-04-09T03:01:02.608Z,21.50
2023-04-09T03:03:31.428Z,21.40
2023-04-09T03:06:00.833Z,21.40
2023-04-09T03:08:30.393Z,21.50
2023-04-09T03:10:58.515Z,21.40
2023-04-09T03:13:28.375Z,21.40
2023-04-09T03:15:56.539Z,21.40
2023-04-09T03:18:24.657Z,21.40
2023-04-09T03:20:53.164Z,21.40
2023-04-09T03:23:21.583Z,21.40
2023-04-09T03:25:51.094Z,21.40
2023-04-09T03:28:20.587Z,21.40
2023-04-09T03:30:52.965Z,21.40
2023-04-09T03:33:21.430Z,21.40
2023-04-09T03:35:55.462Z,21.40
2023-04-09T03:38:33.537Z,21.40
2023-04-09T03:41:07.504Z,21.40
2023-04-09T03:43:35.637Z,21.40
2023-04-09T03:46:13.580Z,21.40
2023-04-09T03:48:42.522Z,21.40
2023-04-09T03:51:13.744Z,21.40
2023-04-09T03:53:43.382Z,21.40
2023-04-09T03:56:12.862Z,21.40
2023-04-09T03:58:40.952Z,21.40
2023-04-09T04:01:12.389Z,21.50
2023-04-09T04:03:53.723Z,21.50
2023-04-09T04:06:27.838Z,21.60
2023-04-09T04:09:04.823Z,21.70
2023-04-09T04:11:45.091Z,21.70
2023-04-09T04:14:13.228Z,21.80
2023-04-09T04:16:44.298Z,21.90
2023-04-09T04:19:16.293Z,21.90
2023-04-09T04:21:48.527Z,22.00
2023-04-09T04:24:17.241Z,22.10
2023-04-09T04:26:46.913Z,22.10
2023-04-09T04:29:18.344Z,22.20
2023-04-09T04:31:58.111Z,22.30
2023-04-09T04:34:30.610Z,22.30
2023-04-09T04:37:04.422Z,22.40
2023-04-09T04:39:34.617Z,22.40
2023-04-09T04:42:12.176Z,22.40
2023-04-09T04:44:40.702Z,22.40
2023-04-09T04:47:28.898Z,22.40
2023-04-09T04:49:57.038Z,22.40
2023-04-09T04:52:25.545Z,22.40
2023-04-09T04:54:55.253Z,22.30
2023-04-09T04:57:26.584Z,22.30
2023-04-09T04:59:55.437Z,22.30
2023-04-09T05:02:23.598Z,22.20
2023-04-09T05:05:12.073Z,22.20
2023-04-09T05:07:46.546Z,22.20
2023-04-09T05:10:15.948Z,22.10
2023-04-09T05:12:46.271Z,22.10
2023-04-09T05:15:21.788Z,22.10
2023-04-09T05:17:50.662Z,22.10
2023-04-09T05:20:19.708Z,22.00
2023-04-09T05:23:02.106Z,22.00
2023-04-09T05:25:34.345Z,22.00
2023-04-09T05:28:05.644Z,22.00
2023-04-09T05:30:35.750Z,21.90
2023-04-09T05:33:05.832Z,21.90
2023-04-09T05:35:34.666Z,21.90
2023-04-09T05:38:02.826Z,21.90
2023-04-09T05:40:31.409Z,21.90
2023-04-09T05:42:59.679Z,21.90
2023-04-09T05:45:41.193Z,21.90
2023-04-09T05:48:09.614Z,21.90
2023-04-09T05:50:53.384Z,22.00
2023-04-09T05:53:25.028Z,22.00
2023-04-09T05:55:53.202Z,22.00
2023-04-09T05:58:25.351Z,22.00
2023-04-09T06:00:55.259Z,22.00
2023-04-09T06:03:23.640Z,22.00
2023-04-09T06:05:52.033Z,22.10
2023-04-09T06:08:20.180Z,22.10
2023-04-09T06:10:48.323Z,22.10
2023-04-09T06:13:16.432Z,22.10
2023-04-09T06:15:44.571Z,22.10
2023-04-09T06:18:14.085Z,22.10
2023-04-09T06:20:43.623Z,22.20
2023-04-09T06:23:11.792Z,22.20
2023-04-09T06:25:39.964Z,22.20
2023-04-09T06:28:08.068Z,22.20
2023-04-09T06:30:36.980Z,22.20
2023-04-09T06:33:07.078Z,22.20
2023-04-09T06:35:36.615Z,22.20
2023-04-09T06:38:04.693Z,22.10
2023-04-09T06:40:32.972Z,22.10
2023-04-09T06:43:01.184Z,22.10
2023-04-09T06:45:40.199Z,22.10
2023-04-09T06:48:09.165Z,22.10
2023-04-09T06:50:38.693Z,22.10
2023-04-09T06:53:08.135Z,22.10
2023-04-09T06:55:36.201Z,22.00
2023-04-09T06:58:04.397Z,22.00
2023-04-09T07:00:32.590Z,22.00
2023-04-09T07:03:01.444Z,22.00
2023-04-09T07:05:30.659Z,22.00
2023-04-09T07:08:00.129Z,22.10
2023-04-09T07:10:28.302Z,22.00
2023-04-09T07:12:56.526Z,22.00
2023-04-09T07:15:24.626Z,22.00
2023-04-09T07:17:52.727Z,22.00
2023-04-09T07:20:20.826Z,22.10
2023-04-09T07:22:48.984Z,22.10
2023-04-09T07:25:18.534Z,22.10
2023-04-09T07:27:46.762Z,22.10
2023-04-09T07:30:14.869Z,22.10
2023-04-09T07:32:43.065Z,22.20
2023-04-09T07:35:12.012Z,22.20
2023-04-09T07:37:40.214Z,22.20
2023-04-09T07:40:09.595Z,22.20
2023-04-09T07:42:40.041Z,22.20
2023-04-09T07:45:09.218Z,22.20
2023-04-09T07:47:37.373Z,22.20
2023-04-09T07:50:06.038Z,22.20
2023-04-09T07:52:34.149Z,22.20
2023-04-09T07:55:02.274Z,22.20
2023-04-09T07:57:32.985Z,22.20
2023-04-09T08:00:03.430Z,22.20
2023-04-09T08:02:41.322Z,22.20
2023-04-09T08:05:10.678Z,22.10
2023-04-09T08:07:38.879Z,22.10
2023-04-09T08:10:08.088Z,22.10
2023-04-09T08:12:36.241Z,22.10
2023-04-09T08:15:06.726Z,22.10
2023-04-09T08:17:36.941Z,22.10
2023-04-09T08:20:05.367Z,22.10
2023-04-09T08:22:34.555Z,22.10
2023-04-09T08:25:02.971Z,22.20
2023-04-09T08:27:31.413Z,22.20
2023-04-09T08:29:59.530Z,22.20
2023-04-09T08:32:29.302Z,22.20
2023-04-09T08:34:57.435Z,22.20
2023-04-09T08:37:25.595Z,22.30
2023-04-09T08:39:53.723Z,22.30
2023-04-09T08:42:24.043Z,22.30
2023-04-09T08:44:52.395Z,22.40
2023-04-09T08:47:21.697Z,22.40
2023-04-09T08:49:51.341Z,22.50
2023-04-09T08:52:22.052Z,22.50
2023-04-09T08:54:52.545Z,22.50
2023-04-09T08:57:20.669Z,22.50
2023-04-09T08:59:48.729Z,22.50
2023-04-09T09:02:16.919Z,22.50
2023-04-09T09:04:47.293Z,22.50
2023-04-09T09:07:17.213Z,22.50
2023-04-09T09:09:53.737Z,22.50
2023-04-09T09:12:36.194Z,22.50
2023-04-09T09:15:05.030Z,22.50
2023-04-09T09:17:33.382Z,22.50
2023-04-09T09:20:20.325Z,22.50
2023-04-09T09:22:55.973Z,22.50
2023-04-09T09:25:25.785Z,22.50
2023-04-09T09:27:55.381Z,22.50
2023-04-09T09:30:25.042Z,22.50
2023-04-09T09:32:54.801Z,22.50
2023-04-09T09:35:23.434Z,22.50
2023-04-09T09:38:05.142Z,22.50
2023-04-09T09:40:33.407Z,22.50
2023-04-09T09:43:01.745Z,22.50
2023-04-09T09:45:31.380Z,22.50
2023-04-09T09:47:59.641Z,22.50
2023-04-09T09:50:31.723Z,22.50
2023-04-09T09:53:05.646Z,22.50
2023-04-09T09:55:35.063Z,22.50
2023-04-09T09:58:12.078Z,22.50
2023-04-09T10:00:41.447Z,22.60
2023-04-09T10:03:15.933Z,22.60
2023-04-09T10:05:45.902Z,22.60
2023-04-09T10:08:16.031Z,22.60
2023-04-09T10:10:44.506Z,22.60
2023-04-09T10:13:17.770Z,22.60
2023-04-09T10:15:46.850Z,22.70
2023-04-09T10:18:15.866Z,22.70
2023-04-09T10:20:52.304Z,22.70
2023-04-09T10:23:32.265Z,22.70
2023-04-09T10:26:00.417Z,22.80
2023-04-09T10:28:28.475Z,22.80
2023-04-09T10:30:57.446Z,22.80
2023-04-09T10:33:27.757Z,22.80
2023-04-09T10:36:00.615Z,22.80
2023-04-09T10:38:40.860Z,22.90
2023-04-09T10:41:14.901Z,22.90
2023-04-09T10:43:43.487Z,22.80
2023-04-09T10:46:27.883Z,22.80
2023-04-09T10:49:13.624Z,22.80
2023-04-09T10:51:42.053Z,22.90
2023-04-09T10:54:40.376Z,22.90
2023-04-09T10:57:13.700Z,22.90
2023-04-09T10:59:43.359Z,23.00
2023-04-09T11:02:27.164Z,23.00
2023-04-09T11:05:05.640Z,23.00
2023-04-09T11:07:36.734Z,23.10
2023-04-09T11:10:07.308Z,23.10
2023-04-09T11:12:35.502Z,23.20
2023-04-09T11:15:03.637Z,23.20
2023-04-09T11:17:36.998Z,23.30
2023-04-09T11:20:05.828Z,23.40
2023-04-09T11:22:34.570Z,23.50
2023-04-09T11:25:02.986Z,23.70
2023-04-09T11:27:32.577Z,23.70
2023-04-09T11:30:00.716Z,23.80
2023-04-09T11:32:31.299Z,23.80
2023-04-09T11:34:59.413Z,23.90
2023-04-09T11:37:27.727Z,24.00
2023-04-09T11:39:57.988Z,24.20
2023-04-09T11:42:26.647Z,24.10
2023-04-09T11:44:56.219Z,24.00
2023-04-09T11:47:25.580Z,23.80
2023-04-09T11:49:54.834Z,23.60
2023-04-09T11:52:23.018Z,23.50
2023-04-09T11:54:51.316Z,23.40
2023-04-09T11:57:19.422Z,23.40
2023-04-09T11:59:47.550Z,23.30
2023-04-09T12:02:19.508Z,23.30
2023-04-09T12:04:51.485Z,23.30
2023-04-09T12:07:19.750Z,23.30
2023-04-09T12:09:49.118Z,23.30
2023-04-09T12:12:20.531Z,23.30
2023-04-09T12:14:48.663Z,23.30
2023-04-09T12:17:21.507Z,23.40
2023-04-09T12:19:50.438Z,23.50
2023-04-09T12:22:18.626Z,23.50
2023-04-09T12:24:46.701Z,23.50
2023-04-09T12:27:14.840Z,23.40
2023-04-09T12:29:42.929Z,23.40
2023-04-09T12:32:11.400Z,23.40
2023-04-09T12:34:41.063Z,23.50
2023-04-09T12:37:09.169Z,23.60
2023-04-09T12:39:37.268Z,23.60
2023-04-09T12:42:05.463Z,23.60
2023-04-09T12:44:34.023Z,23.60
2023-04-09T12:47:02.228Z,23.50
2023-04-09T12:49:31.173Z,23.50
2023-04-09T12:52:00.676Z,23.50
2023-04-09T12:54:28.831Z,23.40
2023-04-09T12:56:56.969Z,23.30
2023-04-09T12:59:25.224Z,23.20
2023-04-09T13:01:53.477Z,23.20
2023-04-09T13:04:21.768Z,23.20
2023-04-09T13:06:50.192Z,23.20
2023-04-09T13:09:19.648Z,23.20
2023-04-09T13:11:47.849Z,23.20
2023-04-09T13:14:16.130Z,23.20
2023-04-09T13:16:44.324Z,23.30
2023-04-09T13:19:12.464Z,23.50
2023-04-09T13:21:40.659Z,23.50
2023-04-09T13:24:08.811Z,23.60
2023-04-09T13:26:38.691Z,23.60
2023-04-09T13:29:06.808Z,23.70
2023-04-09T13:31:36.298Z,23.70
2023-04-09T13:34:04.447Z,23.80
2023-04-09T13:36:32.523Z,23.80
2023-04-09T13:39:04.388Z,23.80
2023-04-09T13:41:33.636Z,23.80
2023-04-09T13:44:03.424Z,23.80
2023-04-09T13:46:31.566Z,23.80
2023-04-09T13:48:59.778Z,23.80
2023-04-09T13:51:29.662Z,23.80
2023-04-09T13:53:57.793Z,23.80
2023-04-09T13:56:27.529Z,23.80
2023-04-09T13:58:55.760Z,23.80
2023-04-09T14:01:27.483Z,23.90
2023-04-09T14:03:56.161Z,23.90
2023-04-09T14:06:24.654Z,24.00
2023-04-09T14:08:53.037Z,24.00
2023-04-09T14:11:21.444Z,24.00
2023-04-09T14:13:49.774Z,23.90
2023-04-09T14:16:17.897Z,23.90
2023-04-09T14:18:47.402Z,23.80
2023-04-09T14:21:15.803Z,23.80
2023-04-09T14:23:43.910Z,23.70
2023-04-09T14:26:12.519Z,23.70
2023-04-09T14:28:40.865Z,23.60
2023-04-09T14:31:09.069Z,23.60
2023-04-09T14:33:37.247Z,23.60
2023-04-09T14:36:07.422Z,23.60
2023-04-09T14:38:36.156Z,23.60
2023-04-09T14:41:04.312Z,23.60
2023-04-09T14:43:32.386Z,23.60
2023-04-09T14:46:00.908Z,23.70
2023-04-09T14:48:28.998Z,23.70
2023-04-09T14:50:57.317Z,23.70
2023-04-09T14:53:27.051Z,23.60
2023-04-09T14:55:55.294Z,23.60
2023-04-09T14:58:23.480Z,23.60
2023-04-09T15:00:51.750Z,23.60
2023-04-09T15:03:20.140Z,23.60
2023-04-09T15:05:48.554Z,23.60
2023-04-09T15:08:16.687Z,23.60
2023-04-09T15:10:46.120Z,23.60
2023-04-09T15:13:14.215Z,23.70
2023-04-09T15:15:44.083Z,23.70
2023-04-09T15:18:12.265Z,23.70
2023-04-09T15:20:44.249Z,23.80
2023-04-09T15:23:12.530Z,23.80
2023-04-09T15:25:40.812Z,23.80
2023-04-09T15:28:10.457Z,23.90
2023-04-09T15:30:38.548Z,23.90
2023-04-09T15:33:06.842Z,23.90
2023-04-09T15:35:36.281Z,23.90
2023-04-09T15:38:04.416Z,23.90
2023-04-09T15:40:32.955Z,24.00
2023-04-09T15:43:01.105Z,24.00
2023-04-09T15:45:30.675Z,24.00
2023-04-09T15:48:00.014Z,24.00
2023-04-09T15:50:28.252Z,24.00
2023-04-09T15:52:56.369Z,23.90
2023-04-09T15:55:26.336Z,23.90
2023-04-09T15:57:55.105Z,23.80
2023-04-09T16:00:24.195Z,23.80
2023-04-09T16:02:54.123Z,23.70
2023-04-09T16:05:22.325Z,23.70
2023-04-09T16:07:52.123Z,23.70
2023-04-09T16:10:20.482Z,23.70
2023-04-09T16:12:48.772Z,23.70
2023-04-09T16:15:17.082Z,23.70
2023-04-09T16:17:45.235Z,23.70
2023-04-09T16:20:15.098Z,23.70
2023-04-09T16:22:43.247Z,23.70
2023-04-09T16:25:11.666Z,23.60
2023-04-09T16:27:39.774Z,23.60
2023-04-09T16:30:09.051Z,23.60
2023-04-09T16:32:37.179Z,23.60
2023-04-09T16:35:05.779Z,23.60
2023-04-09T16:37:35.490Z,23.60
2023-04-09T16:40:04.404Z,23.70
2023-04-09T16:42:32.851Z,23.70
2023-04-09T16:45:04.232Z,23.70
2023-04-09T16:47:32.619Z,23.70
2023-04-09T16:50:00.823Z,23.80
2023-04-09T16:52:29.380Z,23.80
2023-04-09T16:54:58.961Z,23.80
2023-04-09T16:57:27.054Z,23.80
2023-04-09T16:59:55.553Z,23.80
2023-04-09T17:02:24.772Z,23.80
2023-04-09T17:04:53.001Z,23.80
2023-04-09T17:07:22.552Z,23.90
2023-04-09T17:09:51.013Z,23.80
2023-04-09T17:12:21.265Z,23.80
2023-04-09T17:14:50.038Z,23.80
2023-04-09T17:17:18.496Z,23.80
2023-04-09T17:19:46.657Z,23.80
2023-04-09T17:22:15.044Z,23.80
2023-04-09T17:24:43.142Z,23.80
2023-04-09T17:27:11.684Z,23.70
2023-04-09T17:29:41.190Z,23.70
2023-04-09T17:32:09.359Z,23.70
2023-04-09T17:34:37.458Z,23.70
2023-04-09T17:37:05.777Z,23.60
2023-04-09T17:39:33.866Z,23.60
2023-04-09T17:42:04.649Z,23.50
2023-04-09T17:44:35.250Z,23.50
2023-04-09T17:47:04.879Z,23.50
2023-04-09T17:49:33.254Z,23.40
2023-04-09T17:52:01.596Z,23.40
2023-04-09T17:54:34.410Z,23.40
2023-04-09T17:57:04.177Z,23.30
2023-04-09T17:59:33.275Z,23.30
2023-04-09T18:02:02.057Z,23.30
2023-04-09T18:04:32.214Z,23.30
2023-04-09T18:07:00.592Z,23.30
2023-04-09T18:09:28.731Z,23.30
2023-04-09T18:11:57.821Z,23.30
2023-04-09T18:14:26.002Z,23.30
2023-04-09T18:16:54.157Z,23.30
2023-04-09T18:19:22.277Z,23.30
2023-04-09T18:21:51.819Z,23.30
2023-04-09T18:24:20.176Z,23.20
2023-04-09T18:26:48.483Z,23.20
2023-04-09T18:29:16.733Z,23.30
2023-04-09T18:31:44.900Z,23.20
2023-04-09T18:34:12.989Z,23.20
2023-04-09T18:36:42.825Z,23.20
2023-04-09T18:39:12.351Z,23.20
2023-04-09T18:41:40.741Z,23.20
2023-04-09T18:44:08.869Z,23.20
2023-04-09T18:46:37.015Z,23.20
2023-04-09T18:49:05.172Z,23.10
2023-04-09T18:51:33.398Z,23.10
2023-04-09T18:54:02.035Z,23.10
2023-04-09T18:56:31.567Z,23.10
2023-04-09T18:58:59.698Z,23.10
2023-04-09T19:01:27.846Z,23.10
2023-04-09T19:03:56.242Z,23.10
2023-04-09T19:06:25.578Z,23.00
2023-04-09T19:08:58.004Z,23.00
2023-04-09T19:11:26.649Z,23.00
2023-04-09T19:13:56.153Z,23.00
2023-04-09T19:16:24.331Z,22.90
2023-04-09T19:18:52.785Z,22.90
2023-04-09T19:21:21.181Z,22.90
2023-04-09T19:23:49.418Z,22.90
2023-04-09T19:26:18.186Z,22.90
2023-04-09T19:28:46.855Z,22.90
2023-04-09T19:31:16.990Z,22.90
2023-04-09T19:33:45.232Z,22.90
2023-04-09T19:36:14.051Z,22.90
2023-04-09T19:38:42.180Z,22.90
2023-04-09T19:41:10.485Z,22.90
2023-04-09T19:43:39.382Z,22.90
2023-04-09T19:46:08.446Z,22.90
2023-04-09T19:48:40.558Z,22.90
2023-04-09T19:51:08.769Z,22.90
2023-04-09T19:53:37.809Z,22.90
2023-04-09T19:56:06.496Z,22.90
2023-04-09T19:58:34.800Z,22.90
2023-04-09T20:01:03.060Z,22.90
2023-04-09T20:03:33.319Z,22.90
2023-04-09T20:06:07.767Z,22.90
2023-04-09T20:08:36.639Z,22.90
2023-04-09T20:11:04.958Z,22.90
2023-04-09T20:13:33.187Z,22.90
2023-04-09T20:16:01.562Z,22.90
2023-04-09T20:18:29.688Z,22.90
2023-04-09T20:20:57.828Z,22.90
2023-04-09T20:23:27.397Z,22.90
2023-04-09T20:25:56.014Z,22.90
2023-04-09T20:28:24.201Z,22.90
2023-04-09T20:30:52.383Z,22.90
2023-04-09T20:33:20.774Z,22.90
2023-04-09T20:35:50.374Z,22.90
2023-04-09T20:38:20.554Z,22.90
2023-04-09T20:40:52.217Z,22.90
2023-04-09T20:43:20.420Z,22.90
2023-04-09T20:45:48.894Z,22.90
2023-04-09T20:48:18.512Z,22.80
2023-04-09T20:50:46.664Z,22.80
2023-04-09T20:53:15.272Z,22.80
2023-04-09T20:55:43.389Z,22.80
2023-04-09T20:58:12.862Z,22.80
2023-04-09T21:00:40.950Z,22.80
2023-04-09T21:03:09.706Z,22.70
2023-04-09T21:05:37.970Z,22.70
2023-04-09T21:08:06.174Z,22.70
2023-04-09T21:10:34.294Z,22.70
2023-04-09T21:13:02.425Z,22.70
2023-04-09T21:15:31.897Z,22.70
2023-04-09T21:18:00.177Z,22.70
2023-04-09T21:20:28.408Z,22.70
2023-04-09T21:22:56.662Z,22.70
2023-04-09T21:25:28.310Z,22.70
2023-04-09T21:27:56.797Z,22.70
2023-04-09T21:30:24.930Z,22.70
2023-04-09T21:32:54.839Z,22.70
2023-04-09T21:35:23.105Z,22.70
2023-04-09T21:37:51.651Z,22.70
2023-04-09T21:40:19.995Z,22.70
2023-04-09T21:42:48.238Z,22.70
2023-04-09T21:45:16.448Z,22.70
2023-04-09T21:47:45.487Z,22.70
2023-04-09T21:50:15.006Z,22.70
2023-04-09T21:52:43.642Z,22.70
2023-04-09T21:55:11.777Z,22.70
2023-04-09T21:57:39.896Z,22.70
2023-04-09T22:00:10.906Z,22.70
2023-04-09T22:02:40.111Z,22.70
2023-04-09T22:05:09.072Z,22.70
2023-04-09T22:07:39.888Z,22.70
2023-04-09T22:10:09.566Z,22.60
2023-04-09T22:12:37.666Z,22.60
2023-04-09T22:15:06.608Z,22.60
2023-04-09T22:17:34.751Z,22.60
2023-04-09T22:20:03.332Z,22.60
2023-04-09T22:22:32.315Z,22.60
2023-04-09T22:25:01.805Z,22.60
2023-04-09T22:27:29.898Z,22.60
2023-04-09T22:29:58.042Z,22.60
2023-04-09T22:32:26.319Z,22.50
2023-04-09T22:34:54.472Z,22.50
2023-04-09T22:37:22.515Z,22.50
2023-04-09T22:39:50.675Z,22.50
2023-04-09T22:42:20.146Z,22.50
2023-04-09T22:44:48.252Z,22.50
2023-04-09T22:47:16.473Z,22.50
2023-04-09T22:49:44.647Z,22.50
2023-04-09T22:52:12.755Z,22.50
2023-04-09T22:54:43.144Z,22.50
2023-04-09T22:57:11.250Z,22.50
2023-04-09T22:59:41.136Z,22.50
2023-04-09T23:02:09.543Z,22.50
2023-04-09T23:04:37.813Z,22.50
2023-04-09T23:07:05.995Z,22.50
2023-04-09T23:09:34.147Z,22.50
2023-04-09T23:12:02.770Z,22.50
2023-04-09T23:14:30.841Z,22.50
2023-04-09T23:17:00.323Z,22.50
2023-04-09T23:19:28.442Z,22.50
2023-04-09T23:21:56.575Z,22.50
2023-04-09T23:24:24.758Z,22.50
2023-04-09T23:26:52.856Z,22.50
2023-04-09T23:29:21.005Z,22.40
2023-04-09T23:31:49.214Z,22.40
2023-04-09T23:34:18.748Z,22.40
2023-04-09T23:36:46.882Z,22.40
2023-04-09T23:39:15.011Z,22.40
2023-04-09T23:41:43.073Z,22.40
2023-04-09T23:44:11.193Z,22.40
2023-04-09T23:46:39.373Z,22.40
2023-04-09T23:49:07.587Z,22.40
2023-04-09T23:51:37.103Z,22.40
2023-04-09T23:54:05.282Z,22.30
2023-04-09T23:56:33.392Z,22.40
2023-04-09T23:59:01.455Z,22.30
